Time;durP1;ratioP1;P1;durP2;ratioP2;P2;SDS_P1;SDS_P2;PMS_P1;PMS_P2;Temp;Humidity;BMP_temperature;BMP_pressure;BME280_temperature;BME280_humidity;BME280_pressure;Samples;Min_cycle;Max_cycle;Signal;HPM_P1;HPM_P2
2023/09/26 00:01:07;;;;;;;0.20;0.20;;;12.50;99.90;;;;;;5088289;28;20193;-76
2023/09/26 00:03:32;;;;;;;0.20;0.20;;;12.50;99.90;;;;;;5075490;28;20487;-76
2023/09/26 00:05:59;;;;;;;0.20;0.20;;;12.40;99.90;;;;;;5072457;28;20230;-76
2023/09/26 00:08:24;;;;;;;0.20;0.20;;;12.30;99.90;;;;;;5094148;28;20946;-77
2023/09/26 00:10:50;;;;;;;0.20;0.20;;;12.30;99.90;;;;;;5095916;28;20180;-76
2023/09/26 00:13:16;;;;;;;0.20;0.20;;;12.30;99.90;;;;;;5095618;28;20228;-76
2023/09/26 00:15:42;;;;;;;0.20;0.20;;;12.20;99.90;;;;;;5072706;28;20213;-77
2023/09/26 00:18:07;;;;;;;0.20;0.20;;;12.10;99.90;;;;;;5093675;28;20504;-76
2023/09/26 00:20:38;;;;;;;0.20;0.20;;;12.10;99.90;;;;;;5089871;28;20946;-77
2023/09/26 00:23:04;;;;;;;0.20;0.20;;;12.20;99.90;;;;;;5092376;28;20515;-76
2023/09/26 00:25:30;;;;;;;0.20;0.20;;;12.10;99.90;;;;;;5084934;28;20447;-76
2023/09/26 00:27:56;;;;;;;0.20;0.20;;;12.20;99.90;;;;;;5093375;28;20462;-76
2023/09/26 00:30:23;;;;;;;0.20;0.20;;;12.30;99.90;;;;;;5070278;28;21762;-76
2023/09/26 00:32:48;;;;;;;0.20;0.20;;;12.30;99.90;;;;;;5071655;28;20196;-77
2023/09/26 00:35:14;;;;;;;0.20;0.20;;;12.30;99.90;;;;;;5090670;28;20478;-76
2023/09/26 00:37:47;;;;;;;0.20;0.20;;;12.30;99.90;;;;;;5067149;28;20200;-76
2023/09/26 00:40:16;;;;;;;0.20;0.20;;;12.30;99.90;;;;;;5090085;28;20212;-76
2023/09/26 00:42:45;;;;;;;0.20;0.20;;;12.40;99.90;;;;;;5090053;28;20970;-76
2023/09/26 00:45:12;;;;;;;0.17;0.17;;;12.30;99.90;;;;;;5088519;28;20974;-76
2023/09/26 00:47:39;;;;;;;0.20;0.20;;;12.20;99.90;;;;;;5088373;28;20435;-76
2023/09/26 00:50:14;;;;;;;0.20;0.20;;;12.30;99.90;;;;;;5069680;28;20525;-76
2023/09/26 00:52:42;;;;;;;0.20;0.20;;;12.30;99.90;;;;;;5091150;28;20448;-76
2023/09/26 00:55:09;;;;;;;0.20;0.20;;;12.30;99.90;;;;;;5069235;28;20465;-77
2023/09/26 00:57:37;;;;;;;0.20;0.20;;;12.30;99.90;;;;;;5100986;28;20426;-76
2023/09/26 01:00:04;;;;;;;0.20;0.20;;;12.30;99.90;;;;;;5099610;28;20933;-76
2023/09/26 01:02:30;;;;;;;0.20;0.20;;;12.20;99.90;;;;;;5070062;28;20443;-77
2023/09/26 01:04:56;;;;;;;0.20;0.20;;;12.10;99.90;;;;;;5087027;28;20439;-76
2023/09/26 01:07:22;;;;;;;0.20;0.20;;;12.10;99.90;;;;;;5104757;28;20441;-77
2023/09/26 01:09:48;;;;;;;0.17;0.17;;;11.90;99.90;;;;;;5095389;28;20293;-77
2023/09/26 01:12:16;;;;;;;0.20;0.20;;;11.80;99.90;;;;;;5089324;28;20451;-76
2023/09/26 01:14:41;;;;;;;0.20;0.20;;;11.70;99.90;;;;;;5088569;28;20435;-77
2023/09/26 01:17:07;;;;;;;0.20;0.20;;;11.70;99.90;;;;;;5088189;28;20694;-77
2023/09/26 01:19:33;;;;;;;0.20;0.20;;;11.70;99.90;;;;;;5071744;28;20195;-76
2023/09/26 01:21:59;;;;;;;0.13;0.13;;;11.60;99.90;;;;;;5071581;28;20814;-77
2023/09/26 01:24:24;;;;;;;0.20;0.20;;;11.60;99.90;;;;;;5070551;28;20246;-77
2023/09/26 01:26:50;;;;;;;0.10;0.10;;;11.60;99.90;;;;;;5086445;28;20264;-76
2023/09/26 01:29:16;;;;;;;0.13;0.13;;;11.60;99.90;;;;;;5055639;28;20191;-77
2023/09/26 01:31:42;;;;;;;0.20;0.20;;;11.70;99.90;;;;;;5067379;28;20185;-76
2023/09/26 01:34:07;;;;;;;0.20;0.20;;;11.70;99.90;;;;;;5091556;28;20637;-77
2023/09/26 01:36:33;;;;;;;0.20;0.20;;;11.70;99.90;;;;;;5072645;28;20482;-77
2023/09/26 01:38:59;;;;;;;0.20;0.20;;;11.70;99.90;;;;;;5091565;28;20196;-76
2023/09/26 01:41:26;;;;;;;0.20;0.20;;;11.60;99.90;;;;;;5073681;28;20185;-76
2023/09/26 01:43:51;;;;;;;0.20;0.20;;;11.50;99.90;;;;;;5071691;28;20439;-77
2023/09/26 01:46:21;;;;;;;0.20;0.20;;;11.50;99.90;;;;;;5069232;28;20462;-76
2023/09/26 01:48:47;;;;;;;0.20;0.20;;;11.40;99.90;;;;;;5088540;28;20182;-76
2023/09/26 01:51:13;;;;;;;0.20;0.20;;;11.40;99.90;;;;;;5087938;28;20443;-77
2023/09/26 01:53:39;;;;;;;0.20;0.20;;;11.50;99.90;;;;;;5072418;28;20197;-77
2023/09/26 01:56:04;;;;;;;0.20;0.20;;;11.60;99.90;;;;;;5088619;28;20487;-76
2023/09/26 01:58:31;;;;;;;0.20;0.20;;;11.60;99.90;;;;;;5091224;28;20209;-76
2023/09/26 02:00:56;;;;;;;0.20;0.20;;;11.60;99.90;;;;;;5083889;28;20222;-76
2023/09/26 02:03:22;;;;;;;0.20;0.20;;;11.50;99.90;;;;;;5077034;28;20922;-76
2023/09/26 02:05:47;;;;;;;0.20;0.20;;;11.40;99.90;;;;;;5088356;28;20192;-76
2023/09/26 02:08:15;;;;;;;0.20;0.20;;;11.40;99.90;;;;;;5089566;28;20299;-76
2023/09/26 02:10:41;;;;;;;0.20;0.20;;;11.40;99.90;;;;;;5087710;28;20180;-76
2023/09/26 02:13:06;;;;;;;0.20;0.20;;;11.50;99.90;;;;;;5087392;28;20453;-76
2023/09/26 02:15:32;;;;;;;0.20;0.20;;;11.50;99.90;;;;;;5082624;28;20217;-76
2023/09/26 02:17:57;;;;;;;0.20;0.20;;;11.60;99.90;;;;;;5086645;28;21876;-76
2023/09/26 02:20:23;;;;;;;0.20;0.20;;;11.60;99.90;;;;;;5089592;28;20216;-75
2023/09/26 02:22:51;;;;;;;0.20;0.20;;;11.60;99.90;;;;;;5072037;28;20268;-76
2023/09/26 02:25:19;;;;;;;0.20;0.20;;;11.60;99.90;;;;;;5092501;28;20197;-76
2023/09/26 02:27:44;;;;;;;0.10;0.10;;;11.60;99.90;;;;;;5088007;28;20451;-76
2023/09/26 02:30:12;;;;;;;0.10;0.10;;;11.70;99.90;;;;;;5085870;28;20440;-77
2023/09/26 02:32:38;;;;;;;0.10;0.10;;;11.70;99.90;;;;;;5069803;28;20255;-77
2023/09/26 02:35:06;;;;;;;0.13;0.13;;;11.70;99.90;;;;;;5089757;28;20910;-75
2023/09/26 02:37:31;;;;;;;0.20;0.20;;;11.70;99.90;;;;;;5068150;28;20952;-76
2023/09/26 02:39:57;;;;;;;0.20;0.20;;;11.70;99.90;;;;;;5087361;28;20447;-77
2023/09/26 02:42:22;;;;;;;0.20;0.20;;;11.70;99.90;;;;;;5095675;28;20198;-76
2023/09/26 02:44:48;;;;;;;0.20;0.20;;;11.70;99.90;;;;;;5088326;28;20250;-76
2023/09/26 02:47:14;;;;;;;0.10;0.10;;;11.60;99.90;;;;;;5085155;28;20711;-76
2023/09/26 02:49:39;;;;;;;0.10;0.10;;;11.20;99.90;;;;;;5076749;28;20599;-76
2023/09/26 02:52:05;;;;;;;0.13;0.13;;;11.00;99.90;;;;;;5089523;28;20196;-75
2023/09/26 02:54:30;;;;;;;0.10;0.10;;;10.90;99.90;;;;;;5084464;28;20559;-76
2023/09/26 02:57:00;;;;;;;0.20;0.20;;;10.80;99.90;;;;;;5087257;28;20231;-77
2023/09/26 02:59:25;;;;;;;0.10;0.10;;;10.70;99.90;;;;;;5086181;28;20232;-76
2023/09/26 03:01:52;;;;;;;0.20;0.20;;;10.50;99.90;;;;;;5086856;28;20942;-76
2023/09/26 03:04:17;;;;;;;0.20;0.20;;;10.50;99.90;;;;;;5085562;28;20173;-76
2023/09/26 03:06:43;;;;;;;0.20;0.20;;;10.50;99.90;;;;;;5080180;28;20454;-76
2023/09/26 03:09:08;;;;;;;0.20;0.20;;;10.40;99.90;;;;;;5080508;28;20264;-76
2023/09/26 03:11:34;;;;;;;0.20;0.20;;;10.30;99.90;;;;;;5089234;28;20200;-76
2023/09/26 03:13:59;;;;;;;0.20;0.20;;;10.30;99.90;;;;;;5092062;28;20640;-76
2023/09/26 03:16:25;;;;;;;0.20;0.20;;;10.30;99.90;;;;;;5091360;28;20252;-76
2023/09/26 03:18:54;;;;;;;0.20;0.20;;;10.30;99.90;;;;;;5086708;28;20678;-76
2023/09/26 03:21:20;;;;;;;0.20;0.20;;;10.30;99.90;;;;;;5069320;28;20224;-76
2023/09/26 03:23:46;;;;;;;0.20;0.20;;;10.20;99.90;;;;;;5086562;28;20443;-76
2023/09/26 03:26:15;;;;;;;0.20;0.20;;;10.20;99.90;;;;;;5089524;28;20864;-76
2023/09/26 03:28:41;;;;;;;0.20;0.20;;;10.20;99.90;;;;;;5086585;28;20177;-76
2023/09/26 03:31:08;;;;;;;0.20;0.20;;;10.20;99.90;;;;;;5085522;28;20454;-76
2023/09/26 03:33:34;;;;;;;0.20;0.20;;;10.40;99.90;;;;;;5069325;28;20237;-76
2023/09/26 03:36:00;;;;;;;0.20;0.20;;;10.60;99.90;;;;;;5093572;28;20474;-76
2023/09/26 03:38:26;;;;;;;0.20;0.20;;;10.80;99.90;;;;;;5085162;28;20669;-76
2023/09/26 03:41:01;;;;;;;0.20;0.20;;;10.90;99.90;;;;;;5089873;28;20189;-76
2023/09/26 03:43:27;;;;;;;0.20;0.20;;;10.70;99.90;;;;;;5086893;28;20193;-76
2023/09/26 03:45:54;;;;;;;0.20;0.20;;;10.40;99.90;;;;;;5088488;28;20437;-76
2023/09/26 03:48:20;;;;;;;0.20;0.20;;;10.30;99.90;;;;;;5088084;28;21004;-76
2023/09/26 03:50:46;;;;;;;0.20;0.20;;;10.40;99.90;;;;;;5088438;28;20443;-76
2023/09/26 03:53:13;;;;;;;0.20;0.20;;;10.50;99.90;;;;;;5086324;28;20279;-76
2023/09/26 03:55:39;;;;;;;0.20;0.20;;;10.60;99.90;;;;;;5088996;28;20962;-76
2023/09/26 03:58:06;;;;;;;0.20;0.20;;;10.50;99.90;;;;;;5071448;28;20455;-76
2023/09/26 04:00:31;;;;;;;0.20;0.20;;;10.60;99.90;;;;;;5084904;28;20185;-76
2023/09/26 04:02:57;;;;;;;0.20;0.20;;;10.70;99.90;;;;;;5069608;28;20811;-76
2023/09/26 04:05:23;;;;;;;0.20;0.20;;;10.70;99.90;;;;;;5088760;28;20185;-76
2023/09/26 04:07:48;;;;;;;0.20;0.20;;;10.70;99.90;;;;;;5075578;28;20217;-76
2023/09/26 04:10:14;;;;;;;0.20;0.20;;;10.90;99.90;;;;;;5092929;28;20189;-76
2023/09/26 04:12:39;;;;;;;0.20;0.20;;;10.90;99.90;;;;;;5092240;28;20235;-76
2023/09/26 04:15:05;;;;;;;0.20;0.20;;;10.90;99.90;;;;;;5080017;28;20196;-76
2023/09/26 04:17:31;;;;;;;0.20;0.20;;;10.90;99.90;;;;;;5087558;28;20193;-76
2023/09/26 04:19:57;;;;;;;0.20;0.20;;;10.80;99.90;;;;;;5090116;28;20443;-76
2023/09/26 04:22:23;;;;;;;0.20;0.20;;;10.90;99.90;;;;;;5093312;28;20189;-76
2023/09/26 04:24:49;;;;;;;0.20;0.20;;;10.90;99.90;;;;;;5092165;28;20431;-76
2023/09/26 04:27:14;;;;;;;0.20;0.20;;;10.90;99.90;;;;;;5089021;28;20823;-76
2023/09/26 04:29:40;;;;;;;0.20;0.20;;;10.90;99.90;;;;;;5103605;28;20189;-76
2023/09/26 04:32:05;;;;;;;0.20;0.20;;;10.90;99.90;;;;;;5071929;28;20225;-76
2023/09/26 04:34:32;;;;;;;0.20;0.20;;;10.90;99.90;;;;;;5090107;28;20225;-76
2023/09/26 04:36:57;;;;;;;0.20;0.20;;;10.90;99.90;;;;;;5088418;28;20218;-76
2023/09/26 04:39:23;;;;;;;0.20;0.20;;;10.90;99.90;;;;;;5089785;28;20999;-76
2023/09/26 04:41:49;;;;;;;0.20;0.20;;;10.90;99.90;;;;;;5085077;28;20417;-76
2023/09/26 04:44:14;;;;;;;0.20;0.20;;;10.70;99.90;;;;;;5083601;28;20181;-76
2023/09/26 04:46:40;;;;;;;0.20;0.20;;;10.70;99.90;;;;;;5084261;28;20317;-76
2023/09/26 04:49:06;;;;;;;0.20;0.20;;;10.70;99.90;;;;;;5061298;28;20185;-76
2023/09/26 04:51:32;;;;;;;0.20;0.20;;;10.70;99.90;;;;;;5084513;28;20658;-76
2023/09/26 04:54:01;;;;;;;0.20;0.20;;;10.70;99.90;;;;;;5089653;28;20439;-76
2023/09/26 04:56:26;;;;;;;0.20;0.20;;;10.70;99.90;;;;;;5072290;28;20213;-76
2023/09/26 04:58:52;;;;;;;0.20;0.20;;;10.70;99.90;;;;;;5090052;28;20479;-76
2023/09/26 05:01:17;;;;;;;0.20;0.20;;;10.70;99.90;;;;;;5085197;28;20181;-76
2023/09/26 05:03:44;;;;;;;0.20;0.20;;;10.60;99.90;;;;;;5065356;28;20676;-76
2023/09/26 05:06:10;;;;;;;0.20;0.20;;;10.60;99.90;;;;;;5082196;28;20526;-76
2023/09/26 05:08:37;;;;;;;0.20;0.20;;;10.30;99.90;;;;;;5067099;28;20419;-76
2023/09/26 05:11:03;;;;;;;0.20;0.20;;;10.20;99.90;;;;;;5082236;28;20471;-76
2023/09/26 05:13:29;;;;;;;0.20;0.20;;;10.10;99.90;;;;;;5085729;28;20431;-76
2023/09/26 05:15:54;;;;;;;0.20;0.20;;;10.00;99.90;;;;;;5088132;28;20527;-77
2023/09/26 05:18:22;;;;;;;0.20;0.20;;;10.00;99.90;;;;;;5073131;28;20779;-76
2023/09/26 05:20:48;;;;;;;0.20;0.20;;;10.00;99.90;;;;;;5078690;28;20182;-76
2023/09/26 05:23:13;;;;;;;0.20;0.20;;;9.90;99.90;;;;;;5088850;28;21569;-77
2023/09/26 05:25:39;;;;;;;0.20;0.20;;;9.80;99.90;;;;;;5088090;28;20188;-76
2023/09/26 05:28:05;;;;;;;0.20;0.20;;;9.90;99.90;;;;;;5090418;28;20189;-75
2023/09/26 05:30:30;;;;;;;0.20;0.20;;;10.00;99.90;;;;;;5088383;28;20189;-75
2023/09/26 05:32:56;;;;;;;0.20;0.20;;;10.00;99.90;;;;;;5090542;28;20184;-75
2023/09/26 05:35:21;;;;;;;0.20;0.20;;;9.90;99.90;;;;;;5103873;28;20635;-77
2023/09/26 05:37:47;;;;;;;0.20;0.20;;;9.90;99.90;;;;;;5094140;28;20200;-76
2023/09/26 05:40:13;;;;;;;0.20;0.20;;;9.80;99.90;;;;;;5093202;28;20185;-76
2023/09/26 05:42:39;;;;;;;0.20;0.20;;;9.80;99.90;;;;;;5092432;28;20264;-76
2023/09/26 05:45:07;;;;;;;0.20;0.20;;;10.10;99.90;;;;;;5104447;28;20453;-76
2023/09/26 05:47:32;;;;;;;0.20;0.20;;;10.40;99.90;;;;;;5096697;28;20557;-76
2023/09/26 05:49:58;;;;;;;0.20;0.20;;;10.60;99.90;;;;;;5093733;28;20431;-76
2023/09/26 05:52:23;;;;;;;0.20;0.20;;;10.60;99.90;;;;;;5088020;28;20181;-76
2023/09/26 05:54:49;;;;;;;0.20;0.20;;;10.70;99.90;;;;;;5090278;28;20260;-76
2023/09/26 05:57:15;;;;;;;0.20;0.20;;;10.70;99.90;;;;;;5087675;28;20221;-76
2023/09/26 05:59:41;;;;;;;0.20;0.20;;;10.70;99.90;;;;;;5088079;28;20260;-76
2023/09/26 06:02:12;;;;;;;0.20;0.20;;;10.80;99.90;;;;;;5085534;28;20246;-76
2023/09/26 06:04:44;;;;;;;0.20;0.20;;;10.80;99.90;;;;;;5083811;28;20234;-75
2023/09/26 06:07:10;;;;;;;0.20;0.20;;;10.80;99.90;;;;;;5087756;28;20471;-76
2023/09/26 06:09:36;;;;;;;0.20;0.20;;;10.90;99.90;;;;;;5083944;28;20478;-76
2023/09/26 06:12:05;;;;;;;0.20;0.20;;;11.00;99.90;;;;;;5087213;28;20232;-76
2023/09/26 06:14:33;;;;;;;0.10;0.10;;;11.00;99.90;;;;;;5088858;28;20443;-76
2023/09/26 06:16:59;;;;;;;0.20;0.20;;;11.10;99.90;;;;;;5103820;28;20478;-76
2023/09/26 06:19:25;;;;;;;0.20;0.20;;;11.20;99.90;;;;;;5089060;28;20443;-76
2023/09/26 06:21:50;;;;;;;0.20;0.20;;;11.30;99.90;;;;;;5084374;28;20224;-76
2023/09/26 06:24:16;;;;;;;0.20;0.20;;;11.40;99.90;;;;;;5079775;28;20192;-76
2023/09/26 06:26:41;;;;;;;0.20;0.20;;;11.50;99.90;;;;;;5076874;28;20192;-76
2023/09/26 06:29:07;;;;;;;0.20;0.20;;;11.60;99.90;;;;;;5088894;28;20192;-76
2023/09/26 06:31:32;;;;;;;0.20;0.20;;;11.70;99.90;;;;;;5084008;28;20198;-76
2023/09/26 06:34:00;;;;;;;0.20;0.20;;;11.80;99.90;;;;;;5087869;28;20196;-76
2023/09/26 06:36:30;;;;;;;0.20;0.20;;;11.80;99.90;;;;;;5089942;28;20300;-76
2023/09/26 06:38:56;;;;;;;0.20;0.20;;;11.80;99.90;;;;;;5086568;28;20439;-77
2023/09/26 06:41:21;;;;;;;0.20;0.20;;;11.90;99.90;;;;;;5089047;28;20852;-76
2023/09/26 06:43:47;;;;;;;0.20;0.20;;;11.90;99.90;;;;;;5088582;28;20492;-76
2023/09/26 06:46:12;;;;;;;0.10;0.10;;;12.00;99.90;;;;;;5085192;28;20192;-76
2023/09/26 06:48:38;;;;;;;0.20;0.20;;;12.00;99.90;;;;;;5086984;28;20273;-76
2023/09/26 06:51:04;;;;;;;0.20;0.20;;;12.10;99.90;;;;;;5087849;28;20196;-76
2023/09/26 06:53:31;;;;;;;0.20;0.20;;;12.10;99.90;;;;;;5089440;28;20192;-76
2023/09/26 06:56:05;;;;;;;0.20;0.20;;;12.30;99.90;;;;;;5079058;28;20471;-76
2023/09/26 06:58:31;;;;;;;0.10;0.10;;;12.40;99.90;;;;;;5084230;28;20464;-76
2023/09/26 07:00:56;;;;;;;0.10;0.10;;;12.40;99.90;;;;;;5087900;28;20545;-76
2023/09/26 07:03:22;;;;;;;0.10;0.10;;;12.40;99.90;;;;;;5081064;28;20189;-76
2023/09/26 07:05:48;;;;;;;0.13;0.13;;;12.40;99.90;;;;;;5090512;28;20644;-76
2023/09/26 07:08:14;;;;;;;0.20;0.20;;;12.50;99.90;;;;;;5093701;28;20458;-77
2023/09/26 07:10:40;;;;;;;0.10;0.10;;;12.60;99.90;;;;;;5087588;28;20185;-76
2023/09/26 07:13:06;;;;;;;0.10;0.10;;;12.60;99.90;;;;;;5087972;28;20554;-76
2023/09/26 07:15:32;;;;;;;0.20;0.20;;;12.70;99.90;;;;;;5085618;28;20467;-76
2023/09/26 07:17:59;;;;;;;0.20;0.20;;;12.90;99.90;;;;;;5085152;28;20496;-77
2023/09/26 07:20:28;;;;;;;0.10;0.10;;;12.90;99.90;;;;;;5089566;28;20555;-77
2023/09/26 07:22:54;;;;;;;0.20;0.20;;;13.00;99.90;;;;;;5085408;28;20533;-77
2023/09/26 07:25:20;;;;;;;0.10;0.10;;;13.10;99.90;;;;;;5086371;28;20508;-76
2023/09/26 07:27:45;;;;;;;0.10;0.10;;;13.10;99.90;;;;;;5087350;28;20450;-77
2023/09/26 07:30:11;;;;;;;0.10;0.10;;;13.20;99.90;;;;;;5090595;28;20230;-77
2023/09/26 07:32:37;;;;;;;0.10;0.10;;;13.20;99.90;;;;;;5075740;28;20254;-77
2023/09/26 07:35:03;;;;;;;0.10;0.10;;;13.40;99.90;;;;;;5070467;28;20198;-77
2023/09/26 07:37:29;;;;;;;0.10;0.10;;;13.60;99.90;;;;;;5069869;28;20239;-77
2023/09/26 07:39:55;;;;;;;0.10;0.10;;;13.70;99.90;;;;;;5070067;28;20892;-77
2023/09/26 07:42:21;;;;;;;0.20;0.20;;;13.80;99.90;;;;;;5092104;28;20495;-77
2023/09/26 07:44:46;;;;;;;0.10;0.10;;;13.80;99.90;;;;;;5097853;28;20249;-77
2023/09/26 07:47:12;;;;;;;0.20;0.20;;;13.90;99.90;;;;;;5091141;28;21014;-77
2023/09/26 07:49:40;;;;;;;0.10;0.10;;;14.10;99.90;;;;;;5083551;28;20196;-78
2023/09/26 07:52:05;;;;;;;0.10;0.10;;;14.30;99.90;;;;;;5091768;28;20446;-78
2023/09/26 07:54:32;;;;;;;0.10;0.10;;;14.60;99.90;;;;;;5075786;28;20435;-78
2023/09/26 07:56:57;;;;;;;0.10;0.10;;;14.60;99.90;;;;;;5074980;28;20630;-78
2023/09/26 07:59:23;;;;;;;0.10;0.10;;;14.90;99.90;;;;;;5070638;28;20459;-77
2023/09/26 08:01:48;;;;;;;0.10;0.10;;;14.90;99.90;;;;;;5086837;28;20185;-78
2023/09/26 08:04:14;;;;;;;0.10;0.10;;;14.90;99.90;;;;;;5088248;28;20814;-77
2023/09/26 08:06:40;;;;;;;0.10;0.10;;;15.00;99.90;;;;;;5086971;28;20243;-78
2023/09/26 08:09:05;;;;;;;0.10;0.10;;;15.10;99.90;;;;;;5087157;28;20193;-77
2023/09/26 08:11:31;;;;;;;0.10;0.10;;;15.20;99.90;;;;;;5080696;28;20197;-78
2023/09/26 08:13:57;;;;;;;0.10;0.10;;;15.30;99.90;;;;;;5087259;28;20185;-78
2023/09/26 08:16:23;;;;;;;0.10;0.10;;;15.30;99.90;;;;;;5086258;28;20205;-77
2023/09/26 08:18:50;;;;;;;0.00;0.00;;;15.30;99.90;;;;;;5085905;28;20460;-78
2023/09/26 08:21:16;;;;;;;0.00;0.00;;;15.20;99.90;;;;;;5087609;28;20428;-77
2023/09/26 08:23:41;;;;;;;0.10;0.10;;;15.10;99.90;;;;;;5086872;28;20454;-77
2023/09/26 08:26:10;;;;;;;0.10;0.10;;;15.00;99.90;;;;;;5082665;28;20189;-77
2023/09/26 08:28:36;;;;;;;0.10;0.10;;;15.00;99.90;;;;;;5089844;28;20193;-77
2023/09/26 08:31:05;;;;;;;0.10;0.10;;;15.10;99.90;;;;;;5086731;28;20795;-78
2023/09/26 08:33:31;;;;;;;0.00;0.00;;;15.20;99.90;;;;;;5090944;28;20189;-77
2023/09/26 08:35:57;;;;;;;0.00;0.00;;;15.30;99.90;;;;;;5084988;28;20506;-77
2023/09/26 08:38:22;;;;;;;0.10;0.10;;;15.50;99.90;;;;;;5085963;28;21088;-76
2023/09/26 08:40:51;;;;;;;0.10;0.10;;;15.70;99.90;;;;;;5087107;28;20193;-77
2023/09/26 08:43:25;;;;;;;0.10;0.10;;;15.80;99.90;;;;;;5091189;28;20185;-77
2023/09/26 08:45:52;;;;;;;0.10;0.10;;;16.20;99.90;;;;;;5073215;28;20520;-78
2023/09/26 08:48:18;;;;;;;0.10;0.10;;;16.70;99.90;;;;;;5089230;28;20501;-77
2023/09/26 08:50:44;;;;;;;0.00;0.00;;;16.90;99.90;;;;;;5089364;28;20444;-78
2023/09/26 08:53:10;;;;;;;0.10;0.10;;;17.00;99.90;;;;;;5093615;28;20446;-77
2023/09/26 08:55:38;;;;;;;0.10;0.10;;;17.30;99.90;;;;;;5095763;28;20219;-78
2023/09/26 08:58:05;;;;;;;0.00;0.00;;;17.30;99.90;;;;;;5102644;28;20836;-78
2023/09/26 09:00:31;;;;;;;0.00;0.00;;;17.10;99.90;;;;;;5103217;28;20558;-77
2023/09/26 09:02:57;;;;;;;0.10;0.10;;;17.10;99.90;;;;;;5094332;28;20443;-77
2023/09/26 09:05:24;;;;;;;0.10;0.10;;;17.20;99.90;;;;;;5085049;28;20231;-78
2023/09/26 09:07:50;;;;;;;0.10;0.03;;;17.30;99.90;;;;;;5091076;28;20197;-77
2023/09/26 09:10:19;;;;;;;0.10;0.10;;;17.50;99.90;;;;;;5089628;28;20512;-77
2023/09/26 09:12:50;;;;;;;0.10;0.10;;;17.50;99.90;;;;;;5086824;28;20192;-77
2023/09/26 09:15:15;;;;;;;0.10;0.10;;;17.60;99.90;;;;;;5091671;28;21299;-77
2023/09/26 09:17:49;;;;;;;0.10;0.10;;;17.70;99.90;;;;;;5074527;28;20579;-76
2023/09/26 09:20:26;;;;;;;0.10;0.10;;;17.50;99.90;;;;;;5098593;28;20935;-77
2023/09/26 09:23:02;;;;;;;0.10;0.10;;;18.00;99.90;;;;;;5101044;28;20461;-77
2023/09/26 09:25:35;;;;;;;0.10;0.10;;;18.30;99.90;;;;;;5076481;28;20435;-77
2023/09/26 09:28:04;;;;;;;0.10;0.10;;;18.60;99.90;;;;;;5100926;28;20439;-77
2023/09/26 09:30:36;;;;;;;0.10;0.10;;;18.50;99.90;;;;;;5103824;28;20462;-78
2023/09/26 09:33:02;;;;;;;0.10;0.10;;;18.90;99.90;;;;;;5093889;28;20415;-77
2023/09/26 09:35:29;;;;;;;0.10;0.10;;;19.20;99.90;;;;;;5107085;28;20793;-78
2023/09/26 09:37:56;;;;;;;0.10;0.00;;;19.20;99.90;;;;;;5094666;28;20203;-78
2023/09/26 09:40:23;;;;;;;0.10;0.10;;;19.70;99.90;;;;;;5106528;28;20910;-77
2023/09/26 09:42:50;;;;;;;0.10;0.10;;;19.90;99.90;;;;;;5089312;28;20539;-77
2023/09/26 09:45:18;;;;;;;0.10;0.10;;;19.80;99.90;;;;;;5090697;28;20446;-77
2023/09/26 09:47:48;;;;;;;0.10;0.00;;;19.80;99.90;;;;;;5090708;28;20951;-77
2023/09/26 09:50:14;;;;;;;0.00;0.00;;;19.70;99.90;;;;;;5071605;28;20583;-77
2023/09/26 09:52:44;;;;;;;0.10;0.10;;;19.30;99.90;;;;;;5100964;28;20465;-76
2023/09/26 09:55:15;;;;;;;0.10;0.10;;;19.40;99.90;;;;;;5099173;28;21130;-78
2023/09/26 09:57:45;;;;;;;0.10;0.00;;;19.80;99.90;;;;;;5095615;28;20493;-77
2023/09/26 10:00:13;;;;;;;0.10;0.10;;;20.00;99.90;;;;;;5100352;28;20459;-77
2023/09/26 10:02:38;;;;;;;0.10;0.10;;;19.80;99.90;;;;;;5075297;28;20813;-77
2023/09/26 10:05:07;;;;;;;0.10;0.00;;;19.60;99.90;;;;;;5103179;28;20428;-77
2023/09/26 10:07:33;;;;;;;0.10;0.00;;;19.40;99.90;;;;;;5089006;28;20181;-78
2023/09/26 10:10:01;;;;;;;0.10;0.00;;;19.50;99.90;;;;;;5095711;28;21002;-78
2023/09/26 10:12:27;;;;;;;0.10;0.00;;;19.90;99.90;;;;;;5106693;28;20521;-78
2023/09/26 10:14:56;;;;;;;0.10;0.00;;;20.10;99.90;;;;;;5089904;28;20547;-78
2023/09/26 10:17:22;;;;;;;0.10;0.00;;;20.20;99.90;;;;;;5088059;28;20217;-78
2023/09/26 10:19:48;;;;;;;0.10;0.00;;;20.80;99.90;;;;;;5090625;28;20838;-77
2023/09/26 10:22:14;;;;;;;0.10;0.00;;;21.40;99.90;;;;;;5090303;28;20435;-77
2023/09/26 10:24:49;;;;;;;0.10;0.00;;;21.30;99.90;;;;;;5090886;28;20192;-77
2023/09/26 10:27:31;;;;;;;0.10;0.00;;;21.00;99.90;;;;;;5085755;28;20431;-76
2023/09/26 10:29:57;;;;;;;0.10;0.00;;;20.80;99.90;;;;;;5082872;28;20458;-76
2023/09/26 10:32:34;;;;;;;0.10;0.00;;;21.00;99.90;;;;;;5100501;28;20521;-77
2023/09/26 10:35:22;;;;;;;0.10;0.00;;;21.30;99.90;;;;;;5095232;28;20476;-77
2023/09/26 10:38:06;;;;;;;0.10;0.00;;;22.00;99.90;;;;;;5091953;28;20831;-77
2023/09/26 10:40:32;;;;;;;0.10;0.00;;;22.70;99.90;;;;;;5074284;28;20440;-78
2023/09/26 10:42:59;;;;;;;0.10;0.00;;;22.50;99.90;;;;;;5072585;28;20444;-77
2023/09/26 10:45:25;;;;;;;0.10;0.00;;;22.50;99.90;;;;;;5084969;28;20211;-77
2023/09/26 10:47:50;;;;;;;0.10;0.00;;;22.60;99.90;;;;;;5085846;28;20860;-77
2023/09/26 10:50:16;;;;;;;0.10;0.00;;;23.20;99.90;;;;;;5093655;28;20784;-77
2023/09/26 10:52:46;;;;;;;0.10;0.00;;;23.30;99.90;;;;;;5087893;28;20185;-77
2023/09/26 10:55:17;;;;;;;0.10;0.00;;;23.80;99.90;;;;;;5069289;28;20181;-78
2023/09/26 10:57:46;;;;;;;0.10;0.00;;;23.90;99.90;;;;;;5093168;28;20472;-77
2023/09/26 11:00:13;;;;;;;0.00;0.00;;;24.10;99.90;;;;;;5075119;28;20467;-77
2023/09/26 11:02:39;;;;;;;0.00;0.00;;;24.60;99.90;;;;;;5054584;28;20984;-77
2023/09/26 11:05:09;;;;;;;0.00;0.00;;;24.30;99.90;;;;;;5084681;28;20436;-77
2023/09/26 11:07:35;;;;;;;0.10;0.00;;;24.30;99.90;;;;;;5086557;28;20652;-77
2023/09/26 11:10:03;;;;;;;0.10;0.00;;;24.40;99.90;;;;;;5092008;28;20491;-78
2023/09/26 11:12:30;;;;;;;0.00;0.00;;;24.30;99.90;;;;;;5064117;28;20986;-77
2023/09/26 11:14:55;;;;;;;0.10;0.00;;;24.50;99.90;;;;;;5078511;28;20478;-77
2023/09/26 11:17:23;;;;;;;0.10;0.00;;;24.50;99.90;;;;;;5087336;28;20514;-77
2023/09/26 11:19:50;;;;;;;0.10;0.00;;;23.90;99.90;;;;;;5088487;28;20204;-77
2023/09/26 11:22:16;;;;;;;0.10;0.00;;;23.50;99.90;;;;;;5086428;28;20434;-76
2023/09/26 11:24:42;;;;;;;0.10;0.00;;;23.20;99.90;;;;;;5085662;28;20473;-77
2023/09/26 11:27:11;;;;;;;0.10;0.00;;;22.70;99.90;;;;;;5096263;28;20857;-76
2023/09/26 11:29:37;;;;;;;0.10;0.00;;;22.00;99.90;;;;;;5105656;28;20216;-77
2023/09/26 11:32:04;;;;;;;0.10;0.00;;;22.70;99.90;;;;;;5096628;28;20450;-76
2023/09/26 11:34:30;;;;;;;0.10;0.00;;;23.60;99.90;;;;;;5089326;28;20438;-77
2023/09/26 11:36:58;;;;;;;0.10;0.00;;;24.70;99.90;;;;;;5066695;28;21050;-76
2023/09/26 11:39:24;;;;;;;0.10;0.00;;;25.50;99.90;;;;;;5092275;28;20994;-77
2023/09/26 11:42:02;;;;;;;0.10;0.00;;;25.70;99.90;;;;;;5086924;28;20520;-78
2023/09/26 11:44:27;;;;;;;0.10;0.00;;;26.00;99.90;;;;;;5071417;28;20506;-77
2023/09/26 11:46:55;;;;;;;0.10;0.00;;;25.50;99.90;;;;;;5072078;28;20844;-77
2023/09/26 11:49:23;;;;;;;0.10;0.00;;;24.90;99.90;;;;;;5072314;28;20325;-77
2023/09/26 11:51:49;;;;;;;0.10;0.10;;;24.70;99.90;;;;;;5089369;28;20918;-76
2023/09/26 11:54:16;;;;;;;0.10;0.00;;;24.00;99.90;;;;;;5076107;28;20439;-77
2023/09/26 11:56:46;;;;;;;0.00;0.00;;;23.60;99.90;;;;;;5083887;28;20478;-78
2023/09/26 11:59:12;;;;;;;0.10;0.00;;;23.90;99.90;;;;;;5073790;28;20992;-77
2023/09/26 12:01:41;;;;;;;0.10;0.00;;;24.20;99.90;;;;;;5090625;28;20443;-76
2023/09/26 12:04:11;;;;;;;0.00;0.00;;;24.20;99.90;;;;;;5080389;28;20423;-78
2023/09/26 12:06:42;;;;;;;0.10;0.00;;;24.70;99.90;;;;;;5076774;28;20428;-79
2023/09/26 12:09:17;;;;;;;0.00;0.00;;;24.80;99.90;;;;;;5087918;28;20520;-77
2023/09/26 12:11:44;;;;;;;0.00;0.00;;;24.80;99.90;;;;;;5095272;28;20443;-77
2023/09/26 12:14:09;;;;;;;0.10;0.00;;;25.30;99.90;;;;;;5080997;28;20444;-74
2023/09/26 12:16:35;;;;;;;0.10;0.00;;;25.60;99.90;;;;;;5084185;28;20485;-77
2023/09/26 12:19:02;;;;;;;0.10;0.00;;;26.00;99.90;;;;;;5078526;28;20181;-75
2023/09/26 12:21:27;;;;;;;0.10;0.00;;;26.40;99.90;;;;;;5076677;28;20250;-75
2023/09/26 12:23:53;;;;;;;0.10;0.00;;;25.90;99.90;;;;;;5073880;28;20955;-77
2023/09/26 12:26:19;;;;;;;0.10;0.00;;;25.80;99.90;;;;;;5071193;28;20272;-75
2023/09/26 12:28:44;;;;;;;0.00;0.00;;;26.00;99.90;;;;;;5084626;28;20526;-74
2023/09/26 12:31:10;;;;;;;0.00;0.00;;;25.60;99.90;;;;;;5088657;28;20193;-75
2023/09/26 12:33:35;;;;;;;0.00;0.00;;;25.40;99.90;;;;;;5090936;28;20209;-74
2023/09/26 12:36:01;;;;;;;0.10;0.00;;;25.40;99.90;;;;;;5093158;28;20206;-75
2023/09/26 12:38:26;;;;;;;0.00;0.00;;;25.60;99.90;;;;;;5078235;28;20639;-75
2023/09/26 12:40:52;;;;;;;0.00;0.00;;;26.30;99.90;;;;;;5073231;28;20190;-75
2023/09/26 12:43:17;;;;;;;0.10;0.00;;;26.60;99.90;;;;;;5071655;28;20711;-74
2023/09/26 12:45:43;;;;;;;0.10;0.00;;;25.90;99.90;;;;;;5066571;28;20193;-75